FAD501 OEDF-OMDB
Flight info
| Callsign | FAD501 |
|---|---|
| Flight time | N/A |
| Altitude | 25000 |
| Route | LADNA N318 BOSEV DCT EGROP DCT IMGIL DCT ULADO DCT ULDOT DCT SEDPO |
| Aircraft | A20N/M-SDE2E3FGHIRWXY/LB1 |
Departure
| Time | 2026-05-08 14:33 |
|---|---|
| Airport | King Fahd International Airport (OEDF) |
Arrival
| Time | N/A |
|---|---|
| Airport | Dubai International Airport (OMDB) |
| Time | Latitude | Longitude | Altitude | Speed | Heading |
|---|---|---|---|---|---|
| 2026-05-08 13:42 | 26.46348 | 49.79599 | 62 ft | 0 kts | 85° |
| 2026-05-08 14:16 | 26.46348 | 49.79598 | 62 ft | 0 kts | 85° |
| 2026-05-08 14:18 | 26.46347 | 49.79588 | 61 ft | 2 kts | 85° |
| 2026-05-08 14:18 | 26.46346 | 49.79577 | 61 ft | 2 kts | 86° |
| 2026-05-08 14:18 | 26.46345 | 49.79555 | 60 ft | 2 kts | 86° |
| 2026-05-08 14:19 | 26.46344 | 49.79544 | 59 ft | 2 kts | 85° |
| 2026-05-08 14:19 | 26.46348 | 49.79522 | 59 ft | 2 kts | 127° |
| 2026-05-08 14:19 | 26.46359 | 49.79511 | 59 ft | 2 kts | 158° |
| 2026-05-08 14:19 | 26.46368 | 49.79508 | 59 ft | 1 kts | 175° |
| 2026-05-08 14:20 | 26.46374 | 49.79508 | 59 ft | 0 kts | 176° |
| 2026-05-08 14:25 | 26.46373 | 49.79508 | 59 ft | 1 kts | 176° |
| 2026-05-08 14:25 | 26.46351 | 49.79510 | 59 ft | 5 kts | 176° |
| 2026-05-08 14:25 | 26.46303 | 49.79513 | 58 ft | 8 kts | 176° |
| 2026-05-08 14:25 | 26.46242 | 49.79517 | 59 ft | 9 kts | 177° |
| 2026-05-08 14:26 | 26.46178 | 49.79521 | 60 ft | 8 kts | 177° |
| 2026-05-08 14:26 | 26.46123 | 49.79530 | 62 ft | 7 kts | 168° |
| 2026-05-08 14:26 | 26.46072 | 49.79544 | 63 ft | 7 kts | 162° |
| 2026-05-08 14:26 | 26.46014 | 49.79565 | 62 ft | 10 kts | 162° |
| 2026-05-08 14:27 | 26.45948 | 49.79532 | 60 ft | 11 kts | 238° |
| 2026-05-08 14:27 | 26.45923 | 49.79456 | 62 ft | 9 kts | 253° |
| 2026-05-08 14:27 | 26.45889 | 49.79401 | 62 ft | 9 kts | 209° |
| 2026-05-08 14:27 | 26.45824 | 49.79403 | 62 ft | 10 kts | 168° |
| 2026-05-08 14:28 | 26.45750 | 49.79424 | 62 ft | 10 kts | 165° |
| 2026-05-08 14:28 | 26.45671 | 49.79447 | 60 ft | 13 kts | 165° |
| 2026-05-08 14:28 | 26.45577 | 49.79474 | 58 ft | 12 kts | 167° |
| 2026-05-08 14:28 | 26.45544 | 49.79483 | 58 ft | 0 kts | 168° |
| 2026-05-08 14:29 | 26.45525 | 49.79488 | 57 ft | 4 kts | 168° |
| 2026-05-08 14:30 | 26.45481 | 49.79483 | 56 ft | 8 kts | 211° |
| 2026-05-08 14:30 | 26.45461 | 49.79449 | 56 ft | 1 kts | 254° |
| 2026-05-08 14:30 | 26.45459 | 49.79439 | 56 ft | 0 kts | 259° |
| 2026-05-08 14:30 | 26.45458 | 49.79428 | 57 ft | 6 kts | 261° |
| 2026-05-08 14:31 | 26.45446 | 49.79386 | 57 ft | 5 kts | 249° |
| 2026-05-08 14:31 | 26.45437 | 49.79355 | 58 ft | 5 kts | 255° |
| 2026-05-08 14:31 | 26.45421 | 49.79283 | 61 ft | 9 kts | 258° |
| 2026-05-08 14:32 | 26.45527 | 49.79167 | 61 ft | 33 kts | 345° |
| 2026-05-08 14:32 | 26.45993 | 49.79017 | 62 ft | 105 kts | 343° |
| 2026-05-08 14:32 | 26.46908 | 49.78727 | 159 ft | 155 kts | 345° |
| 2026-05-08 14:32 | 26.47988 | 49.78393 | 662 ft | 169 kts | 345° |
| 2026-05-08 14:33 | 26.49104 | 49.78194 | 1559 ft | 163 kts | 8° |
| 2026-05-08 14:33 | 26.50169 | 49.78580 | 2329 ft | 164 kts | 15° |
| 2026-05-08 14:33 | 26.51329 | 49.78819 | 2696 ft | 178 kts | 3° |
| 2026-05-08 14:33 | 26.52637 | 49.78790 | 3002 ft | 198 kts | 355° |
| 2026-05-08 14:34 | 26.54051 | 49.78564 | 3433 ft | 214 kts | 351° |
| 2026-05-08 14:34 | 26.55565 | 49.78210 | 3824 ft | 232 kts | 348° |
| 2026-05-08 14:34 | 26.57215 | 49.77772 | 4228 ft | 249 kts | 351° |
| 2026-05-08 14:34 | 26.58961 | 49.77833 | 4697 ft | 259 kts | 17° |
| 2026-05-08 14:35 | 26.60551 | 49.78828 | 4951 ft | 264 kts | 43° |
| 2026-05-08 14:35 | 26.61557 | 49.80521 | 4985 ft | 269 kts | 69° |
| 2026-05-08 14:35 | 26.61747 | 49.82623 | 4987 ft | 276 kts | 97° |
| 2026-05-08 14:35 | 26.61014 | 49.84604 | 5073 ft | 289 kts | 124° |
| 2026-05-08 14:36 | 26.59724 | 49.86327 | 5741 ft | 289 kts | 123° |
| 2026-05-08 14:36 | 26.58958 | 49.88327 | 6387 ft | 280 kts | 94° |
| 2026-05-08 14:36 | 26.59127 | 49.90488 | 6843 ft | 280 kts | 77° |
| 2026-05-08 14:36 | 26.59508 | 49.92622 | 6999 ft | 281 kts | 78° |
| 2026-05-08 14:37 | 26.59878 | 49.94758 | 7027 ft | 281 kts | 78° |
| 2026-05-08 14:37 | 26.60246 | 49.96892 | 7008 ft | 281 kts | 78° |
| 2026-05-08 14:37 | 26.60618 | 49.99038 | 6968 ft | 281 kts | 78° |
| 2026-05-08 14:37 | 26.60991 | 50.01185 | 6989 ft | 281 kts | 78° |
| 2026-05-08 14:38 | 26.61363 | 50.03319 | 7002 ft | 281 kts | 78° |
| 2026-05-08 14:38 | 26.61611 | 50.04752 | 6993 ft | 282 kts | 78° |
| 2026-05-08 14:38 | 26.62037 | 50.07211 | 6991 ft | 282 kts | 78° |
| 2026-05-08 14:39 | 26.62299 | 50.08728 | 7002 ft | 282 kts | 78° |
| 2026-05-08 14:39 | 26.62669 | 50.10867 | 6998 ft | 282 kts | 77° |
| 2026-05-08 14:39 | 26.63044 | 50.13027 | 6998 ft | 283 kts | 77° |
| 2026-05-08 14:39 | 26.63300 | 50.15208 | 6965 ft | 284 kts | 92° |
| 2026-05-08 14:40 | 26.62701 | 50.17279 | 6958 ft | 287 kts | 122° |
| 2026-05-08 14:40 | 26.61407 | 50.18975 | 6972 ft | 288 kts | 131° |
| 2026-05-08 14:40 | 26.60045 | 50.20632 | 6979 ft | 287 kts | 130° |
| 2026-05-08 14:40 | 26.58710 | 50.22287 | 6988 ft | 287 kts | 130° |
| 2026-05-08 14:41 | 26.57810 | 50.23416 | 6994 ft | 288 kts | 130° |
| 2026-05-08 14:41 | 26.56045 | 50.25639 | 6979 ft | 290 kts | 130° |
| 2026-05-08 14:41 | 26.55150 | 50.26770 | 6974 ft | 289 kts | 130° |
| 2026-05-08 14:41 | 26.53374 | 50.29017 | 6979 ft | 289 kts | 130° |
| 2026-05-08 14:42 | 26.52494 | 50.30130 | 6978 ft | 289 kts | 130° |
| 2026-05-08 14:42 | 26.50722 | 50.32371 | 6974 ft | 289 kts | 130° |
| 2026-05-08 14:42 | 26.49392 | 50.34053 | 6973 ft | 288 kts | 130° |
| 2026-05-08 14:42 | 26.48045 | 50.35754 | 6963 ft | 288 kts | 130° |
| 2026-05-08 14:43 | 26.46795 | 50.37472 | 6971 ft | 288 kts | 121° |
| 2026-05-08 14:43 | 26.45889 | 50.39466 | 7017 ft | 291 kts | 108° |
| 2026-05-08 14:43 | 26.45254 | 50.41651 | 7640 ft | 296 kts | 106° |
| 2026-05-08 14:43 | 26.44920 | 50.42884 | 8135 ft | 295 kts | 106° |
| 2026-05-08 14:44 | 26.44336 | 50.45046 | 8881 ft | 297 kts | 106° |
| 2026-05-08 14:44 | 26.43732 | 50.47261 | 9556 ft | 301 kts | 107° |
| 2026-05-08 14:44 | 26.43114 | 50.49498 | 10249 ft | 305 kts | 108° |
| 2026-05-08 14:44 | 26.42472 | 50.51796 | 10693 ft | 317 kts | 108° |
| 2026-05-08 14:45 | 26.41792 | 50.54212 | 11002 ft | 335 kts | 108° |
| 2026-05-08 14:45 | 26.41082 | 50.56731 | 11288 ft | 352 kts | 108° |
| 2026-05-08 14:45 | 26.40334 | 50.59390 | 11557 ft | 368 kts | 108° |
| 2026-05-08 14:45 | 26.39548 | 50.62175 | 11857 ft | 382 kts | 108° |
| 2026-05-08 14:46 | 26.38743 | 50.65015 | 12406 ft | 387 kts | 108° |
| 2026-05-08 14:46 | 26.37936 | 50.67859 | 13064 ft | 389 kts | 108° |
| 2026-05-08 14:46 | 26.37389 | 50.69792 | 13499 ft | 390 kts | 109° |
| 2026-05-08 14:46 | 26.36283 | 50.73690 | 14291 ft | 395 kts | 109° |
| 2026-05-08 14:47 | 26.35457 | 50.76593 | 14764 ft | 399 kts | 109° |
| 2026-05-08 14:47 | 26.35061 | 50.77982 | 14901 ft | 400 kts | 109° |
| 2026-05-08 14:47 | 26.34332 | 50.80539 | 14980 ft | 400 kts | 109° |
| 2026-05-08 14:47 | 26.33482 | 50.83514 | 14971 ft | 400 kts | 109° |
| 2026-05-08 14:48 | 26.32630 | 50.86493 | 14989 ft | 402 kts | 109° |
| 2026-05-08 14:48 | 26.31780 | 50.89465 | 15239 ft | 408 kts | 109° |
| 2026-05-08 14:48 | 26.30867 | 50.92457 | 15875 ft | 408 kts | 112° |
| 2026-05-08 14:48 | 26.29779 | 50.95384 | 16461 ft | 409 kts | 117° |
| 2026-05-08 14:49 | 26.28519 | 50.98192 | 16961 ft | 411 kts | 121° |
| 2026-05-08 14:49 | 26.27121 | 51.00996 | 17465 ft | 414 kts | 122° |
| 2026-05-08 14:49 | 26.25710 | 51.03789 | 17951 ft | 417 kts | 122° |
| 2026-05-08 14:49 | 26.24284 | 51.06609 | 18405 ft | 420 kts | 122° |
| 2026-05-08 14:50 | 26.22856 | 51.09440 | 18849 ft | 424 kts | 122° |
| 2026-05-08 14:50 | 26.21405 | 51.12319 | 19304 ft | 427 kts | 122° |
| 2026-05-08 14:50 | 26.19955 | 51.15200 | 19754 ft | 430 kts | 123° |
| 2026-05-08 14:50 | 26.18497 | 51.18095 | 20173 ft | 434 kts | 123° |
| 2026-05-08 14:51 | 26.17018 | 51.21032 | 20600 ft | 437 kts | 123° |
| 2026-05-08 14:51 | 26.15519 | 51.24006 | 21018 ft | 440 kts | 123° |
| 2026-05-08 14:51 | 26.14024 | 51.26971 | 21431 ft | 443 kts | 123° |
| 2026-05-08 14:51 | 26.12514 | 51.29968 | 21835 ft | 446 kts | 123° |
| 2026-05-08 14:52 | 26.11004 | 51.32961 | 22251 ft | 449 kts | 123° |
| 2026-05-08 14:52 | 26.07915 | 51.39077 | 23046 ft | 454 kts | 123° |
| 2026-05-08 14:52 | 26.06377 | 51.42114 | 23438 ft | 457 kts | 123° |
| 2026-05-08 14:53 | 26.04802 | 51.45218 | 23823 ft | 460 kts | 123° |
| 2026-05-08 14:53 | 26.03226 | 51.48323 | 24216 ft | 462 kts | 123° |
| 2026-05-08 14:53 | 26.01652 | 51.51424 | 24589 ft | 464 kts | 123° |
| 2026-05-08 14:53 | 26.00080 | 51.54520 | 24807 ft | 465 kts | 123° |
| 2026-05-08 14:54 | 25.98486 | 51.57660 | 24810 ft | 465 kts | 123° |
| 2026-05-08 14:54 | 25.96895 | 51.60795 | 24813 ft | 464 kts | 123° |
| 2026-05-08 14:54 | 25.95853 | 51.62846 | 24811 ft | 464 kts | 123° |
| 2026-05-08 14:54 | 25.94243 | 51.66014 | 24808 ft | 464 kts | 123° |
| 2026-05-08 14:55 | 25.92133 | 51.70161 | 24808 ft | 464 kts | 123° |
| 2026-05-08 14:55 | 25.90541 | 51.73286 | 24811 ft | 464 kts | 123° |
| 2026-05-08 14:55 | 25.88967 | 51.76463 | 24807 ft | 465 kts | 122° |
| 2026-05-08 14:55 | 25.87439 | 51.79601 | 24809 ft | 465 kts | 122° |
| 2026-05-08 14:56 | 25.85897 | 51.82774 | 24805 ft | 465 kts | 122° |
| 2026-05-08 14:56 | 25.84873 | 51.84873 | 24804 ft | 465 kts | 122° |
| 2026-05-08 14:56 | 25.82955 | 51.89060 | 24804 ft | 466 kts | 119° |
| 2026-05-08 14:56 | 25.81631 | 51.92186 | 24804 ft | 466 kts | 118° |
| 2026-05-08 14:57 | 25.80258 | 51.95451 | 24805 ft | 466 kts | 118° |
| 2026-05-08 14:57 | 25.78890 | 51.98713 | 24807 ft | 466 kts | 118° |
| 2026-05-08 14:57 | 25.77521 | 52.01972 | 24803 ft | 466 kts | 118° |
| 2026-05-08 14:57 | 25.76368 | 52.04713 | 24803 ft | 466 kts | 118° |
| 2026-05-08 14:58 | 25.76349 | 52.04758 | 24803 ft | 466 kts | 118° |
| 2026-05-08 14:58 | 25.76330 | 52.04804 | 24803 ft | 466 kts | 118° |
| 2026-05-08 14:58 | 25.76211 | 52.05087 | 24804 ft | 466 kts | 118° |